sensor_id;sensor_type;location;lat;lon;timestamp;temperature;humidity
63313;DHT22;49442;45.640;13.812;2022-09-02T00:00:55;19.80;99.90
63313;DHT22;49442;45.640;13.812;2022-09-02T00:03:29;19.80;99.90
63313;DHT22;49442;45.640;13.812;2022-09-02T00:05:56;19.80;99.70
63313;DHT22;49442;45.640;13.812;2022-09-02T00:08:22;19.80;99.90
63313;DHT22;49442;45.640;13.812;2022-09-02T00:10:48;19.80;99.90
63313;DHT22;49442;45.640;13.812;2022-09-02T00:13:15;19.70;99.90
63313;DHT22;49442;45.640;13.812;2022-09-02T00:15:42;19.70;99.90
63313;DHT22;49442;45.640;13.812;2022-09-02T00:18:08;19.60;99.90
63313;DHT22;49442;45.640;13.812;2022-09-02T00:20:40;19.70;99.80
63313;DHT22;49442;45.640;13.812;2022-09-02T00:23:06;19.70;99.90
63313;DHT22;49442;45.640;13.812;2022-09-02T00:25:34;19.70;99.90
63313;DHT22;49442;45.640;13.812;2022-09-02T00:27:59;19.60;99.90
63313;DHT22;49442;45.640;13.812;2022-09-02T00:30:25;19.60;99.40
63313;DHT22;49442;45.640;13.812;2022-09-02T00:32:51;19.60;99.90
63313;DHT22;49442;45.640;13.812;2022-09-02T00:35:17;19.60;99.90
63313;DHT22;49442;45.640;13.812;2022-09-02T00:37:43;19.60;99.90
63313;DHT22;49442;45.640;13.812;2022-09-02T00:40:09;19.60;99.90
63313;DHT22;49442;45.640;13.812;2022-09-02T00:42:36;19.60;99.90
63313;DHT22;49442;45.640;13.812;2022-09-02T00:45:03;19.60;99.40
63313;DHT22;49442;45.640;13.812;2022-09-02T00:47:30;19.50;99.90
63313;DHT22;49442;45.640;13.812;2022-09-02T00:49:56;19.50;99.90
63313;DHT22;49442;45.640;13.812;2022-09-02T00:52:31;19.50;99.90
63313;DHT22;49442;45.640;13.812;2022-09-02T00:54:59;19.50;99.90
63313;DHT22;49442;45.640;13.812;2022-09-02T00:57:32;19.50;99.40
63313;DHT22;49442;45.640;13.812;2022-09-02T01:00:15;19.50;99.60
63313;DHT22;49442;45.640;13.812;2022-09-02T01:02:43;19.50;99.90
63313;DHT22;49442;45.640;13.812;2022-09-02T01:05:13;19.40;99.80
63313;DHT22;49442;45.640;13.812;2022-09-02T01:07:41;19.40;99.80
63313;DHT22;49442;45.640;13.812;2022-09-02T01:10:13;19.40;99.90
63313;DHT22;49442;45.640;13.812;2022-09-02T01:12:39;19.40;99.90
63313;DHT22;49442;45.640;13.812;2022-09-02T01:15:06;19.40;99.60
63313;DHT22;49442;45.640;13.812;2022-09-02T01:17:34;19.40;99.80
63313;DHT22;49442;45.640;13.812;2022-09-02T01:20:10;19.40;99.40
63313;DHT22;49442;45.640;13.812;2022-09-02T01:22:37;19.40;99.70
63313;DHT22;49442;45.640;13.812;2022-09-02T01:25:08;19.40;99.60
63313;DHT22;49442;45.640;13.812;2022-09-02T01:27:33;19.30;99.10
63313;DHT22;49442;45.640;13.812;2022-09-02T01:29:59;19.30;99.90
63313;DHT22;49442;45.640;13.812;2022-09-02T01:32:27;19.30;99.90
63313;DHT22;49442;45.640;13.812;2022-09-02T01:34:53;19.30;99.50
63313;DHT22;49442;45.640;13.812;2022-09-02T01:37:20;19.20;99.60
63313;DHT22;49442;45.640;13.812;2022-09-02T01:39:46;19.20;99.70
63313;DHT22;49442;45.640;13.812;2022-09-02T01:42:13;19.20;99.60
63313;DHT22;49442;45.640;13.812;2022-09-02T01:44:39;19.10;99.50
63313;DHT22;49442;45.640;13.812;2022-09-02T01:47:17;19.10;99.40
63313;DHT22;49442;45.640;13.812;2022-09-02T01:49:43;19.10;99.20
63313;DHT22;49442;45.640;13.812;2022-09-02T01:52:11;19.10;99.60
63313;DHT22;49442;45.640;13.812;2022-09-02T01:54:37;19.10;99.50
63313;DHT22;49442;45.640;13.812;2022-09-02T01:57:03;19.00;99.10
63313;DHT22;49442;45.640;13.812;2022-09-02T01:59:29;19.00;99.20
63313;DHT22;49442;45.640;13.812;2022-09-02T02:01:54;19.00;99.00
63313;DHT22;49442;45.640;13.812;2022-09-02T02:04:20;18.90;99.20
63313;DHT22;49442;45.640;13.812;2022-09-02T02:06:50;18.90;99.00
63313;DHT22;49442;45.640;13.812;2022-09-02T02:09:17;18.90;99.10
63313;DHT22;49442;45.640;13.812;2022-09-02T02:11:43;18.90;98.50
63313;DHT22;49442;45.640;13.812;2022-09-02T02:14:10;18.90;99.20
63313;DHT22;49442;45.640;13.812;2022-09-02T02:16:36;18.80;99.50
63313;DHT22;49442;45.640;13.812;2022-09-02T02:19:03;18.80;99.20
63313;DHT22;49442;45.640;13.812;2022-09-02T02:21:30;18.80;98.70
63313;DHT22;49442;45.640;13.812;2022-09-02T02:23:56;18.80;98.80
63313;DHT22;49442;45.640;13.812;2022-09-02T02:26:24;18.70;98.70
63313;DHT22;49442;45.640;13.812;2022-09-02T02:28:50;18.80;99.30
63313;DHT22;49442;45.640;13.812;2022-09-02T02:31:16;18.80;99.40
63313;DHT22;49442;45.640;13.812;2022-09-02T02:33:41;18.70;99.40
63313;DHT22;49442;45.640;13.812;2022-09-02T02:36:07;18.70;99.30
63313;DHT22;49442;45.640;13.812;2022-09-02T02:38:35;18.70;99.40
63313;DHT22;49442;45.640;13.812;2022-09-02T02:41:01;18.60;99.00
63313;DHT22;49442;45.640;13.812;2022-09-02T02:43:31;18.70;99.40
63313;DHT22;49442;45.640;13.812;2022-09-02T02:45:57;18.60;99.10
63313;DHT22;49442;45.640;13.812;2022-09-02T02:48:23;18.60;99.30
63313;DHT22;49442;45.640;13.812;2022-09-02T02:50:49;18.60;99.10
63313;DHT22;49442;45.640;13.812;2022-09-02T02:53:15;18.60;99.20
63313;DHT22;49442;45.640;13.812;2022-09-02T02:55:42;18.60;99.20
63313;DHT22;49442;45.640;13.812;2022-09-02T02:58:08;18.60;98.90
63313;DHT22;49442;45.640;13.812;2022-09-02T03:00:34;18.60;98.60
63313;DHT22;49442;45.640;13.812;2022-09-02T03:03:06;18.60;98.90
63313;DHT22;49442;45.640;13.812;2022-09-02T03:05:32;18.60;98.10
63313;DHT22;49442;45.640;13.812;2022-09-02T03:08:00;18.60;98.40
63313;DHT22;49442;45.640;13.812;2022-09-02T03:10:26;18.60;98.50
63313;DHT22;49442;45.640;13.812;2022-09-02T03:12:52;18.60;98.10
63313;DHT22;49442;45.640;13.812;2022-09-02T03:15:19;18.60;98.20
63313;DHT22;49442;45.640;13.812;2022-09-02T03:17:48;18.60;97.90
63313;DHT22;49442;45.640;13.812;2022-09-02T03:20:15;18.60;97.90
63313;DHT22;49442;45.640;13.812;2022-09-02T03:22:46;18.60;97.50
63313;DHT22;49442;45.640;13.812;2022-09-02T03:25:15;18.60;97.50
63313;DHT22;49442;45.640;13.812;2022-09-02T03:27:41;18.50;97.10
63313;DHT22;49442;45.640;13.812;2022-09-02T03:30:13;18.50;97.70
63313;DHT22;49442;45.640;13.812;2022-09-02T03:32:39;18.50;97.00
63313;DHT22;49442;45.640;13.812;2022-09-02T03:35:09;18.60;96.70
63313;DHT22;49442;45.640;13.812;2022-09-02T03:37:36;18.60;96.50
63313;DHT22;49442;45.640;13.812;2022-09-02T03:40:08;18.50;97.10
63313;DHT22;49442;45.640;13.812;2022-09-02T03:42:35;18.60;96.20
63313;DHT22;49442;45.640;13.812;2022-09-02T03:45:02;18.50;96.40
63313;DHT22;49442;45.640;13.812;2022-09-02T03:47:28;18.50;96.50
63313;DHT22;49442;45.640;13.812;2022-09-02T03:49:55;18.50;96.90
63313;DHT22;49442;45.640;13.812;2022-09-02T03:52:21;18.50;96.40
63313;DHT22;49442;45.640;13.812;2022-09-02T03:54:47;18.50;96.20
63313;DHT22;49442;45.640;13.812;2022-09-02T03:57:13;18.40;96.60
63313;DHT22;49442;45.640;13.812;2022-09-02T03:59:39;18.40;96.80
63313;DHT22;49442;45.640;13.812;2022-09-02T04:02:05;18.40;96.80
63313;DHT22;49442;45.640;13.812;2022-09-02T04:04:31;18.40;96.10
63313;DHT22;49442;45.640;13.812;2022-09-02T04:06:57;18.40;96.50
63313;DHT22;49442;45.640;13.812;2022-09-02T04:09:23;18.40;96.20
63313;DHT22;49442;45.640;13.812;2022-09-02T04:11:49;18.40;96.70
63313;DHT22;49442;45.640;13.812;2022-09-02T04:14:15;18.40;96.90
63313;DHT22;49442;45.640;13.812;2022-09-02T04:16:41;18.40;96.60
63313;DHT22;49442;45.640;13.812;2022-09-02T04:19:08;18.30;96.50
63313;DHT22;49442;45.640;13.812;2022-09-02T04:21:37;18.30;96.70
63313;DHT22;49442;45.640;13.812;2022-09-02T04:24:04;18.30;96.80
63313;DHT22;49442;45.640;13.812;2022-09-02T04:26:31;18.30;96.50
63313;DHT22;49442;45.640;13.812;2022-09-02T04:28:58;18.30;96.60
63313;DHT22;49442;45.640;13.812;2022-09-02T04:31:24;18.30;96.50
63313;DHT22;49442;45.640;13.812;2022-09-02T04:33:51;18.30;96.90
63313;DHT22;49442;45.640;13.812;2022-09-02T04:36:18;18.30;96.60
63313;DHT22;49442;45.640;13.812;2022-09-02T04:38:44;18.30;96.80
63313;DHT22;49442;45.640;13.812;2022-09-02T04:41:18;18.30;96.70
63313;DHT22;49442;45.640;13.812;2022-09-02T04:43:44;18.30;96.60
63313;DHT22;49442;45.640;13.812;2022-09-02T04:46:12;18.30;96.80
63313;DHT22;49442;45.640;13.812;2022-09-02T04:48:38;18.30;96.60
63313;DHT22;49442;45.640;13.812;2022-09-02T04:51:20;18.30;96.60
63313;DHT22;49442;45.640;13.812;2022-09-02T04:53:46;18.30;96.60
63313;DHT22;49442;45.640;13.812;2022-09-02T04:56:15;18.30;96.70
63313;DHT22;49442;45.640;13.812;2022-09-02T04:58:43;18.30;97.20
63313;DHT22;49442;45.640;13.812;2022-09-02T05:01:12;18.30;97.10
63313;DHT22;49442;45.640;13.812;2022-09-02T05:03:40;18.30;96.90
63313;DHT22;49442;45.640;13.812;2022-09-02T05:06:07;18.30;96.60
63313;DHT22;49442;45.640;13.812;2022-09-02T05:08:34;18.30;97.10
63313;DHT22;49442;45.640;13.812;2022-09-02T05:11:12;18.30;97.00
63313;DHT22;49442;45.640;13.812;2022-09-02T05:13:39;18.30;96.70
63313;DHT22;49442;45.640;13.812;2022-09-02T05:16:05;18.30;96.70
63313;DHT22;49442;45.640;13.812;2022-09-02T05:18:31;18.30;96.80
63313;DHT22;49442;45.640;13.812;2022-09-02T05:20:57;18.40;96.70
63313;DHT22;49442;45.640;13.812;2022-09-02T05:23:23;18.40;96.80
63313;DHT22;49442;45.640;13.812;2022-09-02T05:25:49;18.40;97.10
63313;DHT22;49442;45.640;13.812;2022-09-02T05:28:15;18.40;96.90
63313;DHT22;49442;45.640;13.812;2022-09-02T05:30:41;18.40;96.90
63313;DHT22;49442;45.640;13.812;2022-09-02T05:33:08;18.40;96.90
63313;DHT22;49442;45.640;13.812;2022-09-02T05:35:42;18.40;96.70
63313;DHT22;49442;45.640;13.812;2022-09-02T05:38:08;18.50;97.00
63313;DHT22;49442;45.640;13.812;2022-09-02T05:40:36;18.50;96.30
63313;DHT22;49442;45.640;13.812;2022-09-02T05:43:04;18.60;96.00
63313;DHT22;49442;45.640;13.812;2022-09-02T05:45:29;18.60;96.00
63313;DHT22;49442;45.640;13.812;2022-09-02T05:47:55;18.60;96.00
63313;DHT22;49442;45.640;13.812;2022-09-02T05:50:21;18.60;96.00
63313;DHT22;49442;45.640;13.812;2022-09-02T05:52:49;18.70;96.20
63313;DHT22;49442;45.640;13.812;2022-09-02T05:55:15;18.70;95.80
63313;DHT22;49442;45.640;13.812;2022-09-02T05:57:41;18.70;96.20
63313;DHT22;49442;45.640;13.812;2022-09-02T06:00:10;18.70;95.70
63313;DHT22;49442;45.640;13.812;2022-09-02T06:02:35;18.80;95.80
63313;DHT22;49442;45.640;13.812;2022-09-02T06:05:01;18.80;95.80
63313;DHT22;49442;45.640;13.812;2022-09-02T06:07:27;18.80;95.80
63313;DHT22;49442;45.640;13.812;2022-09-02T06:09:53;18.80;95.90
63313;DHT22;49442;45.640;13.812;2022-09-02T06:12:19;18.90;95.70
63313;DHT22;49442;45.640;13.812;2022-09-02T06:14:48;18.90;95.50
63313;DHT22;49442;45.640;13.812;2022-09-02T06:17:14;18.90;95.70
63313;DHT22;49442;45.640;13.812;2022-09-02T06:19:40;19.00;95.80
63313;DHT22;49442;45.640;13.812;2022-09-02T06:22:06;19.00;95.30
63313;DHT22;49442;45.640;13.812;2022-09-02T06:24:32;19.00;95.20
63313;DHT22;49442;45.640;13.812;2022-09-02T06:26:58;19.10;95.40
63313;DHT22;49442;45.640;13.812;2022-09-02T06:29:26;19.10;95.30
63313;DHT22;49442;45.640;13.812;2022-09-02T06:31:52;19.20;95.00
63313;DHT22;49442;45.640;13.812;2022-09-02T06:34:20;19.20;95.00
63313;DHT22;49442;45.640;13.812;2022-09-02T06:36:47;19.30;94.70
63313;DHT22;49442;45.640;13.812;2022-09-02T06:39:15;19.30;94.80
63313;DHT22;49442;45.640;13.812;2022-09-02T06:41:42;19.30;94.90
63313;DHT22;49442;45.640;13.812;2022-09-02T06:44:09;19.40;95.10
63313;DHT22;49442;45.640;13.812;2022-09-02T06:46:41;19.40;95.20
63313;DHT22;49442;45.640;13.812;2022-09-02T06:49:11;19.50;94.80
63313;DHT22;49442;45.640;13.812;2022-09-02T06:51:43;19.50;94.90
63313;DHT22;49442;45.640;13.812;2022-09-02T06:54:12;19.50;94.50
63313;DHT22;49442;45.640;13.812;2022-09-02T06:56:38;19.60;94.70
63313;DHT22;49442;45.640;13.812;2022-09-02T06:59:05;19.60;94.40
63313;DHT22;49442;45.640;13.812;2022-09-02T07:01:33;19.70;94.20
63313;DHT22;49442;45.640;13.812;2022-09-02T07:03:59;19.80;94.10
63313;DHT22;49442;45.640;13.812;2022-09-02T07:06:45;19.80;94.10
63313;DHT22;49442;45.640;13.812;2022-09-02T07:09:15;19.80;94.40
63313;DHT22;49442;45.640;13.812;2022-09-02T07:11:41;19.90;94.70
63313;DHT22;49442;45.640;13.812;2022-09-02T07:14:07;20.00;94.40
63313;DHT22;49442;45.640;13.812;2022-09-02T07:16:36;20.00;94.30
63313;DHT22;49442;45.640;13.812;2022-09-02T07:19:03;20.00;94.10
63313;DHT22;49442;45.640;13.812;2022-09-02T07:21:30;20.10;94.20
63313;DHT22;49442;45.640;13.812;2022-09-02T07:23:59;20.20;94.40
63313;DHT22;49442;45.640;13.812;2022-09-02T07:26:26;20.20;94.00
63313;DHT22;49442;45.640;13.812;2022-09-02T07:28:53;20.30;94.40
63313;DHT22;49442;45.640;13.812;2022-09-02T07:31:19;20.30;94.30
63313;DHT22;49442;45.640;13.812;2022-09-02T07:33:45;20.40;94.20
63313;DHT22;49442;45.640;13.812;2022-09-02T07:36:12;20.40;94.50
63313;DHT22;49442;45.640;13.812;2022-09-02T07:38:39;20.50;94.30
63313;DHT22;49442;45.640;13.812;2022-09-02T07:41:07;20.50;94.50
63313;DHT22;49442;45.640;13.812;2022-09-02T07:43:34;20.60;94.40
63313;DHT22;49442;45.640;13.812;2022-09-02T07:46:00;20.60;94.50
63313;DHT22;49442;45.640;13.812;2022-09-02T07:48:27;20.70;94.30
63313;DHT22;49442;45.640;13.812;2022-09-02T07:50:52;20.70;94.40
63313;DHT22;49442;45.640;13.812;2022-09-02T07:53:19;20.80;94.30
63313;DHT22;49442;45.640;13.812;2022-09-02T07:55:45;20.90;94.20
63313;DHT22;49442;45.640;13.812;2022-09-02T07:58:13;20.90;94.10
63313;DHT22;49442;45.640;13.812;2022-09-02T08:00:40;21.00;93.50
63313;DHT22;49442;45.640;13.812;2022-09-02T08:03:08;21.10;93.40
63313;DHT22;49442;45.640;13.812;2022-09-02T08:05:36;21.10;93.70
63313;DHT22;49442;45.640;13.812;2022-09-02T08:08:03;21.20;93.70
63313;DHT22;49442;45.640;13.812;2022-09-02T08:10:30;21.30;93.50
63313;DHT22;49442;45.640;13.812;2022-09-02T08:12:57;21.30;93.30
63313;DHT22;49442;45.640;13.812;2022-09-02T08:15:25;21.40;93.70
63313;DHT22;49442;45.640;13.812;2022-09-02T08:17:53;21.40;94.10
63313;DHT22;49442;45.640;13.812;2022-09-02T08:20:19;21.40;94.00
63313;DHT22;49442;45.640;13.812;2022-09-02T08:22:45;21.50;94.20
63313;DHT22;49442;45.640;13.812;2022-09-02T08:25:10;21.50;94.20
63313;DHT22;49442;45.640;13.812;2022-09-02T08:27:37;21.60;94.80
63313;DHT22;49442;45.640;13.812;2022-09-02T08:30:04;21.70;94.50
63313;DHT22;49442;45.640;13.812;2022-09-02T08:32:31;21.70;94.10
63313;DHT22;49442;45.640;13.812;2022-09-02T08:34:58;21.80;94.00
63313;DHT22;49442;45.640;13.812;2022-09-02T08:37:30;21.90;94.50
63313;DHT22;49442;45.640;13.812;2022-09-02T08:39:56;22.00;93.70
63313;DHT22;49442;45.640;13.812;2022-09-02T08:42:30;22.10;93.40
63313;DHT22;49442;45.640;13.812;2022-09-02T08:45:02;22.20;93.70
63313;DHT22;49442;45.640;13.812;2022-09-02T08:47:30;22.20;93.60
63313;DHT22;49442;45.640;13.812;2022-09-02T08:50:05;22.20;93.70
63313;DHT22;49442;45.640;13.812;2022-09-02T08:55:50;22.60;92.70
63313;DHT22;49442;45.640;13.812;2022-09-02T08:58:21;22.70;93.10
63313;DHT22;49442;45.640;13.812;2022-09-02T09:01:06;22.70;92.80
63313;DHT22;49442;45.640;13.812;2022-09-02T09:03:42;22.70;93.10
63313;DHT22;49442;45.640;13.812;2022-09-02T09:06:39;22.80;92.80
63313;DHT22;49442;45.640;13.812;2022-09-02T09:15:08;23.00;92.80
63313;DHT22;49442;45.640;13.812;2022-09-02T09:17:48;23.00;92.10
63313;DHT22;49442;45.640;13.812;2022-09-02T09:20:29;23.10;92.20
63313;DHT22;49442;45.640;13.812;2022-09-02T09:22:58;23.10;92.40
63313;DHT22;49442;45.640;13.812;2022-09-02T09:25:25;23.20;92.50
63313;DHT22;49442;45.640;13.812;2022-09-02T09:27:58;23.20;92.20
63313;DHT22;49442;45.640;13.812;2022-09-02T09:30:24;23.30;91.90
63313;DHT22;49442;45.640;13.812;2022-09-02T09:32:56;23.30;91.60
63313;DHT22;49442;45.640;13.812;2022-09-02T09:35:25;23.30;91.90
63313;DHT22;49442;45.640;13.812;2022-09-02T09:37:52;23.40;91.40
63313;DHT22;49442;45.640;13.812;2022-09-02T09:45:39;23.50;91.20
63313;DHT22;49442;45.640;13.812;2022-09-02T09:48:24;23.60;90.90
63313;DHT22;49442;45.640;13.812;2022-09-02T09:53:21;23.60;91.70
63313;DHT22;49442;45.640;13.812;2022-09-02T09:56:05;23.70;91.10
63313;DHT22;49442;45.640;13.812;2022-09-02T10:01:31;23.80;91.20
63313;DHT22;49442;45.640;13.812;2022-09-02T10:04:28;23.80;91.30
63313;DHT22;49442;45.640;13.812;2022-09-02T10:06:54;23.80;91.50
63313;DHT22;49442;45.640;13.812;2022-09-02T10:12:06;23.90;90.30
63313;DHT22;49442;45.640;13.812;2022-09-02T10:14:33;23.90;90.00
63313;DHT22;49442;45.640;13.812;2022-09-02T10:27:06;24.20;90.50
63313;DHT22;49442;45.640;13.812;2022-09-02T10:40:44;24.40;90.10
63313;DHT22;49442;45.640;13.812;2022-09-02T10:46:00;24.40;89.10
63313;DHT22;49442;45.640;13.812;2022-09-02T10:48:42;24.50;90.00
63313;DHT22;49442;45.640;13.812;2022-09-02T10:57:01;24.60;89.70
63313;DHT22;49442;45.640;13.812;2022-09-02T10:59:36;24.60;89.60
63313;DHT22;49442;45.640;13.812;2022-09-02T11:02:24;24.60;90.60
63313;DHT22;49442;45.640;13.812;2022-09-02T11:04:58;24.70;88.30
63313;DHT22;49442;45.640;13.812;2022-09-02T11:07:35;24.70;88.70
63313;DHT22;49442;45.640;13.812;2022-09-02T11:10:14;24.80;90.30
63313;DHT22;49442;45.640;13.812;2022-09-02T11:16:10;24.80;88.80
63313;DHT22;49442;45.640;13.812;2022-09-02T11:27:16;24.60;86.90
63313;DHT22;49442;45.640;13.812;2022-09-02T11:30:19;24.50;90.30
63313;DHT22;49442;45.640;13.812;2022-09-02T11:32:48;24.50;90.10
63313;DHT22;49442;45.640;13.812;2022-09-02T11:35:21;24.40;88.20
63313;DHT22;49442;45.640;13.812;2022-09-02T11:37:49;24.40;86.50
63313;DHT22;49442;45.640;13.812;2022-09-02T11:40:38;24.30;87.90
63313;DHT22;49442;45.640;13.812;2022-09-02T11:48:58;24.30;88.10
63313;DHT22;49442;45.640;13.812;2022-09-02T11:53:56;24.40;90.20
63313;DHT22;49442;45.640;13.812;2022-09-02T11:56:39;24.40;92.00
63313;DHT22;49442;45.640;13.812;2022-09-02T11:59:06;24.60;88.80
63313;DHT22;49442;45.640;13.812;2022-09-02T12:01:47;24.60;91.60
63313;DHT22;49442;45.640;13.812;2022-09-02T12:09:48;24.80;90.10
63313;DHT22;49442;45.640;13.812;2022-09-02T12:15:13;24.70;90.80
63313;DHT22;49442;45.640;13.812;2022-09-02T12:17:41;24.70;87.30
63313;DHT22;49442;45.640;13.812;2022-09-02T12:20:11;24.70;90.10
63313;DHT22;49442;45.640;13.812;2022-09-02T12:22:55;24.80;90.30
63313;DHT22;49442;45.640;13.812;2022-09-02T12:33:38;25.10;90.10
63313;DHT22;49442;45.640;13.812;2022-09-02T12:36:05;25.20;87.10
63313;DHT22;49442;45.640;13.812;2022-09-02T12:38:40;25.20;88.60
63313;DHT22;49442;45.640;13.812;2022-09-02T12:41:14;25.20;83.70
63313;DHT22;49442;45.640;13.812;2022-09-02T12:54:48;25.40;84.10
63313;DHT22;49442;45.640;13.812;2022-09-02T12:57:17;25.40;83.70
63313;DHT22;49442;45.640;13.812;2022-09-02T12:59:45;25.50;82.10
63313;DHT22;49442;45.640;13.812;2022-09-02T13:10:26;25.30;83.90
63313;DHT22;49442;45.640;13.812;2022-09-02T13:16:06;25.50;85.10
63313;DHT22;49442;45.640;13.812;2022-09-02T13:33:01;25.80;83.80
63313;DHT22;49442;45.640;13.812;2022-09-02T13:35:31;25.80;85.70
63313;DHT22;49442;45.640;13.812;2022-09-02T13:37:59;25.90;82.90
63313;DHT22;49442;45.640;13.812;2022-09-02T13:40:26;25.90;83.90
63313;DHT22;49442;45.640;13.812;2022-09-02T13:42:55;25.90;82.20
63313;DHT22;49442;45.640;13.812;2022-09-02T13:45:26;25.90;82.80
63313;DHT22;49442;45.640;13.812;2022-09-02T13:47:54;26.00;85.50
63313;DHT22;49442;45.640;13.812;2022-09-02T13:50:26;26.00;83.90
63313;DHT22;49442;45.640;13.812;2022-09-02T13:52:58;26.00;82.70
63313;DHT22;49442;45.640;13.812;2022-09-02T13:55:25;26.00;81.60
63313;DHT22;49442;45.640;13.812;2022-09-02T13:58:05;26.00;81.10
63313;DHT22;49442;45.640;13.812;2022-09-02T14:00:37;25.90;81.50
63313;DHT22;49442;45.640;13.812;2022-09-02T14:03:09;25.90;83.40
63313;DHT22;49442;45.640;13.812;2022-09-02T14:05:37;25.90;84.30
63313;DHT22;49442;45.640;13.812;2022-09-02T14:08:10;25.90;82.10
63313;DHT22;49442;45.640;13.812;2022-09-02T14:10:36;25.90;82.80
63313;DHT22;49442;45.640;13.812;2022-09-02T14:13:06;25.90;82.10
63313;DHT22;49442;45.640;13.812;2022-09-02T14:15:33;25.90;81.40
63313;DHT22;49442;45.640;13.812;2022-09-02T14:18:18;25.90;83.20
63313;DHT22;49442;45.640;13.812;2022-09-02T14:23:22;25.80;81.70
63313;DHT22;49442;45.640;13.812;2022-09-02T14:25:54;25.80;84.20
63313;DHT22;49442;45.640;13.812;2022-09-02T14:28:25;25.90;83.80
63313;DHT22;49442;45.640;13.812;2022-09-02T14:31:05;25.90;81.60
63313;DHT22;49442;45.640;13.812;2022-09-02T14:38:47;25.80;83.00
63313;DHT22;49442;45.640;13.812;2022-09-02T14:41:20;25.80;82.80
63313;DHT22;49442;45.640;13.812;2022-09-02T14:46:49;25.90;81.40
63313;DHT22;49442;45.640;13.812;2022-09-02T14:56:58;25.70;80.90
63313;DHT22;49442;45.640;13.812;2022-09-02T14:59:23;25.70;79.90
63313;DHT22;49442;45.640;13.812;2022-09-02T15:01:50;25.70;80.70
63313;DHT22;49442;45.640;13.812;2022-09-02T15:04:17;25.70;80.40
63313;DHT22;49442;45.640;13.812;2022-09-02T15:06:44;25.70;79.30
63313;DHT22;49442;45.640;13.812;2022-09-02T15:09:11;25.70;80.20
63313;DHT22;49442;45.640;13.812;2022-09-02T15:11:40;25.60;80.50
63313;DHT22;49442;45.640;13.812;2022-09-02T15:14:07;25.60;80.30
63313;DHT22;49442;45.640;13.812;2022-09-02T15:16:32;25.60;80.00
63313;DHT22;49442;45.640;13.812;2022-09-02T15:18:58;25.60;81.80
63313;DHT22;49442;45.640;13.812;2022-09-02T15:21:24;25.60;81.40
63313;DHT22;49442;45.640;13.812;2022-09-02T15:23:50;25.60;80.00
63313;DHT22;49442;45.640;13.812;2022-09-02T15:26:16;25.60;80.70
63313;DHT22;49442;45.640;13.812;2022-09-02T15:28:41;25.60;80.90
63313;DHT22;49442;45.640;13.812;2022-09-02T15:31:08;25.50;80.10
63313;DHT22;49442;45.640;13.812;2022-09-02T15:33:34;25.50;79.10
63313;DHT22;49442;45.640;13.812;2022-09-02T15:36:18;25.50;79.70
63313;DHT22;49442;45.640;13.812;2022-09-02T15:38:45;25.50;81.50
63313;DHT22;49442;45.640;13.812;2022-09-02T15:41:17;25.40;79.80
63313;DHT22;49442;45.640;13.812;2022-09-02T15:43:42;25.40;79.70
63313;DHT22;49442;45.640;13.812;2022-09-02T15:46:25;25.40;80.00
63313;DHT22;49442;45.640;13.812;2022-09-02T15:48:52;25.40;80.10
63313;DHT22;49442;45.640;13.812;2022-09-02T15:51:20;25.40;80.00
63313;DHT22;49442;45.640;13.812;2022-09-02T15:53:46;25.40;80.50
63313;DHT22;49442;45.640;13.812;2022-09-02T15:56:21;25.40;80.40
63313;DHT22;49442;45.640;13.812;2022-09-02T15:59:11;25.40;80.00
63313;DHT22;49442;45.640;13.812;2022-09-02T16:01:40;25.40;80.00
63313;DHT22;49442;45.640;13.812;2022-09-02T16:04:06;25.40;80.10
63313;DHT22;49442;45.640;13.812;2022-09-02T16:06:34;25.40;80.70
63313;DHT22;49442;45.640;13.812;2022-09-02T16:09:01;25.30;80.40
63313;DHT22;49442;45.640;13.812;2022-09-02T16:11:27;25.30;80.00
63313;DHT22;49442;45.640;13.812;2022-09-02T16:13:53;25.30;80.90
63313;DHT22;49442;45.640;13.812;2022-09-02T16:16:19;25.30;80.80
63313;DHT22;49442;45.640;13.812;2022-09-02T16:18:49;25.30;80.40
63313;DHT22;49442;45.640;13.812;2022-09-02T16:21:16;25.20;80.80
63313;DHT22;49442;45.640;13.812;2022-09-02T16:23:42;25.20;80.80
63313;DHT22;49442;45.640;13.812;2022-09-02T16:26:12;25.20;80.90
63313;DHT22;49442;45.640;13.812;2022-09-02T16:28:43;25.20;81.10
63313;DHT22;49442;45.640;13.812;2022-09-02T16:31:11;25.20;81.40
63313;DHT22;49442;45.640;13.812;2022-09-02T16:33:38;25.10;81.10
63313;DHT22;49442;45.640;13.812;2022-09-02T16:36:04;25.10;81.50
63313;DHT22;49442;45.640;13.812;2022-09-02T16:38:30;25.00;81.50
63313;DHT22;49442;45.640;13.812;2022-09-02T16:40:57;25.00;81.90
63313;DHT22;49442;45.640;13.812;2022-09-02T16:43:23;25.00;81.80
63313;DHT22;49442;45.640;13.812;2022-09-02T16:45:52;25.00;81.50
63313;DHT22;49442;45.640;13.812;2022-09-02T16:48:21;24.90;81.40
63313;DHT22;49442;45.640;13.812;2022-09-02T16:50:48;24.80;81.40
63313;DHT22;49442;45.640;13.812;2022-09-02T16:53:14;24.80;81.70
63313;DHT22;49442;45.640;13.812;2022-09-02T16:55:41;24.80;82.00
63313;DHT22;49442;45.640;13.812;2022-09-02T16:58:08;24.70;81.80
63313;DHT22;49442;45.640;13.812;2022-09-02T17:00:36;24.70;82.20
63313;DHT22;49442;45.640;13.812;2022-09-02T17:03:06;24.60;82.00
63313;DHT22;49442;45.640;13.812;2022-09-02T17:05:32;24.60;82.20
63313;DHT22;49442;45.640;13.812;2022-09-02T17:07:58;24.60;82.20
63313;DHT22;49442;45.640;13.812;2022-09-02T17:10:27;24.50;82.00
63313;DHT22;49442;45.640;13.812;2022-09-02T17:12:53;24.50;82.80
63313;DHT22;49442;45.640;13.812;2022-09-02T17:15:20;24.40;82.60
63313;DHT22;49442;45.640;13.812;2022-09-02T17:17:46;24.30;82.40
63313;DHT22;49442;45.640;13.812;2022-09-02T17:20:11;24.30;82.60
63313;DHT22;49442;45.640;13.812;2022-09-02T17:22:38;24.20;82.40
63313;DHT22;49442;45.640;13.812;2022-09-02T17:25:05;24.20;82.60
63313;DHT22;49442;45.640;13.812;2022-09-02T17:27:31;24.10;82.60
63313;DHT22;49442;45.640;13.812;2022-09-02T17:29:57;24.10;83.00
63313;DHT22;49442;45.640;13.812;2022-09-02T17:32:24;24.00;82.90
63313;DHT22;49442;45.640;13.812;2022-09-02T17:34:51;23.90;83.30
63313;DHT22;49442;45.640;13.812;2022-09-02T17:37:18;23.90;83.40
63313;DHT22;49442;45.640;13.812;2022-09-02T17:39:44;23.80;83.30
63313;DHT22;49442;45.640;13.812;2022-09-02T17:42:11;23.80;83.50
63313;DHT22;49442;45.640;13.812;2022-09-02T17:44:37;23.70;83.80
63313;DHT22;49442;45.640;13.812;2022-09-02T17:49:31;23.60;84.50
63313;DHT22;49442;45.640;13.812;2022-09-02T17:51:56;23.60;84.70